Time;durP1;ratioP1;P1;durP2;ratioP2;P2;SDS_P1;SDS_P2;PMS_P1;PMS_P2;Temp;Humidity;BMP_temperature;BMP_pressure;BME280_temperature;BME280_humidity;BME280_pressure;Samples;Min_cycle;Max_cycle;Signal;HPM_P1;HPM_P2
2022/04/12 00:00:42;;;;;;;3.80;1.60;;;4.90;99.90;;;;;;4953130;28;20027;-74
2022/04/12 00:03:09;;;;;;;2.70;1.30;;;4.90;99.90;;;;;;4953884;29;20551;-74
2022/04/12 00:05:36;;;;;;;2.25;1.58;;;5.00;99.90;;;;;;4954225;29;20055;-74
2022/04/12 00:08:02;;;;;;;2.45;1.75;;;5.00;99.90;;;;;;4953639;29;20028;-74
2022/04/12 00:10:30;;;;;;;3.28;2.10;;;5.10;99.90;;;;;;4936748;29;20023;-74
2022/04/12 00:12:57;;;;;;;3.67;1.70;;;5.00;99.90;;;;;;4954188;29;20565;-74
2022/04/12 00:15:23;;;;;;;2.90;1.40;;;4.90;99.90;;;;;;4954168;29;20029;-74
2022/04/12 00:20:33;;;;;;;2.72;2.05;;;4.60;99.90;;;;;;4954735;29;20026;-74
2022/04/12 00:23:00;;;;;;;3.15;1.40;;;4.60;99.90;;;;;;4953999;29;20357;-74
2022/04/12 00:25:27;;;;;;;3.00;1.25;;;4.60;99.90;;;;;;4953233;29;20102;-74
2022/04/12 00:27:54;;;;;;;1.95;1.75;;;4.60;99.90;;;;;;4953703;29;20023;-74
2022/04/12 00:30:21;;;;;;;1.52;1.40;;;4.70;99.90;;;;;;4953474;29;20055;-75
2022/04/12 00:32:50;;;;;;;2.42;1.42;;;4.70;99.90;;;;;;4953669;29;20039;-74
2022/04/12 00:35:16;;;;;;;1.80;1.10;;;4.80;99.90;;;;;;4954070;29;20031;-74
2022/04/12 00:37:42;;;;;;;1.75;1.02;;;4.90;99.90;;;;;;4936143;29;20480;-74
2022/04/12 00:40:08;;;;;;;2.78;1.30;;;4.90;99.90;;;;;;4953426;29;20043;-74
2022/04/12 00:42:34;;;;;;;3.13;1.65;;;4.80;99.90;;;;;;4952863;29;20027;-74
2022/04/12 00:45:00;;;;;;;2.03;1.52;;;4.70;99.90;;;;;;4953217;29;20036;-75
2022/04/12 00:47:26;;;;;;;2.97;1.10;;;4.60;99.90;;;;;;4935386;29;20488;-75
2022/04/12 00:49:52;;;;;;;1.70;1.13;;;4.50;99.90;;;;;;4953208;29;20027;-74
2022/04/12 00:52:18;;;;;;;1.50;1.20;;;4.40;99.90;;;;;;4935067;29;20113;-75
2022/04/12 00:54:44;;;;;;;1.55;1.30;;;4.30;99.90;;;;;;4952879;29;20509;-74
2022/04/12 00:57:12;;;;;;;1.50;1.10;;;4.20;99.90;;;;;;4953207;29;20038;-74
2022/04/12 00:59:38;;;;;;;2.05;1.23;;;4.20;99.90;;;;;;4953219;29;20301;-75
2022/04/12 01:02:07;;;;;;;2.83;1.30;;;4.20;99.90;;;;;;4954008;29;20019;-74
2022/04/12 01:04:33;;;;;;;3.53;1.42;;;4.10;99.90;;;;;;4953540;29;20034;-74
2022/04/12 01:07:00;;;;;;;1.45;0.95;;;4.10;99.90;;;;;;4953272;29;20520;-74
2022/04/12 01:09:26;;;;;;;2.97;1.70;;;4.10;99.90;;;;;;4952907;29;20035;-74
2022/04/12 01:11:53;;;;;;;2.30;1.35;;;4.10;99.90;;;;;;4952832;28;20023;-75
2022/04/12 01:14:19;;;;;;;2.25;1.10;;;4.10;99.90;;;;;;4952911;29;20091;-74
2022/04/12 01:16:44;;;;;;;2.72;1.05;;;4.10;99.90;;;;;;4953183;29;20027;-74
2022/04/12 01:19:10;;;;;;;2.28;1.13;;;4.20;99.90;;;;;;4952999;29;20091;-74
2022/04/12 01:21:54;;;;;;;0.90;0.90;;;4.20;99.90;;;;;;4952971;29;20038;-74
2022/04/12 01:24:20;;;;;;;1.00;1.00;;;4.20;99.90;;;;;;4952074;29;20036;-74
2022/04/12 01:26:46;;;;;;;3.47;1.17;;;4.30;99.90;;;;;;4952232;29;20023;-74
2022/04/12 01:29:12;;;;;;;1.08;1.02;;;4.30;99.90;;;;;;4952510;29;20043;-74
2022/04/12 01:31:38;;;;;;;1.20;1.10;;;4.30;99.90;;;;;;4953117;29;20449;-75
2022/04/12 01:34:04;;;;;;;1.73;1.15;;;4.30;99.90;;;;;;4953045;29;20038;-74
2022/04/12 01:36:29;;;;;;;1.48;1.10;;;2.70;99.90;;;;;;4952568;29;20480;-74
2022/04/12 01:38:55;;;;;;;2.95;1.20;;;4.20;99.90;;;;;;4952650;29;20031;-74
2022/04/12 01:41:21;;;;;;;1.02;0.95;;;4.10;99.90;;;;;;4952672;29;20023;-75
2022/04/12 01:43:46;;;;;;;1.88;1.02;;;4.10;99.90;;;;;;4952800;29;20103;-75
2022/04/12 01:46:12;;;;;;;1.08;0.88;;;4.10;99.90;;;;;;4952516;29;20031;-74
2022/04/12 01:48:38;;;;;;;1.90;1.75;;;4.10;99.90;;;;;;4952441;29;20019;-74
2022/04/12 01:51:03;;;;;;;1.58;1.05;;;4.00;99.90;;;;;;4952549;29;20032;-76
2022/04/12 01:53:29;;;;;;;1.02;0.80;;;4.00;99.90;;;;;;4952362;29;20035;-75
2022/04/12 01:55:55;;;;;;;3.50;1.52;;;4.10;99.90;;;;;;4952630;29;20027;-74
2022/04/12 01:58:20;;;;;;;3.85;0.90;;;4.10;99.90;;;;;;4952581;29;20047;-75
2022/04/12 02:00:46;;;;;;;1.13;0.70;;;4.30;99.90;;;;;;4952772;29;20030;-74
2022/04/12 02:03:13;;;;;;;4.90;1.10;;;4.30;99.90;;;;;;4952586;29;20027;-74
2022/04/12 02:05:39;;;;;;;3.10;1.70;;;4.30;99.90;;;;;;4952746;29;20020;-74
2022/04/12 02:08:06;;;;;;;1.77;1.33;;;4.30;99.90;;;;;;4952540;29;20023;-74
2022/04/12 02:10:32;;;;;;;1.33;0.93;;;4.30;99.90;;;;;;4919738;29;20031;-75
2022/04/12 02:12:57;;;;;;;1.95;1.25;;;4.40;99.90;;;;;;4952444;29;20046;-74
2022/04/12 02:15:23;;;;;;;1.48;1.10;;;4.40;99.90;;;;;;4952679;29;20091;-74
2022/04/12 02:17:49;;;;;;;1.42;1.13;;;4.30;99.90;;;;;;4952322;29;20591;-74
2022/04/12 02:20:14;;;;;;;2.78;1.10;;;4.30;99.90;;;;;;4951846;29;20098;-76
2022/04/12 02:22:40;;;;;;;1.50;1.05;;;4.40;99.90;;;;;;4952726;28;20043;-74
2022/04/12 02:25:06;;;;;;;1.20;1.10;;;4.30;99.90;;;;;;4955583;29;20490;-74
2022/04/12 02:27:32;;;;;;;2.00;1.00;;;4.30;99.90;;;;;;4956244;29;20027;-75
2022/04/12 02:29:57;;;;;;;2.47;1.33;;;4.20;99.90;;;;;;4956377;28;20106;-74
2022/04/12 02:32:23;;;;;;;2.55;1.20;;;4.20;99.90;;;;;;4956112;29;20110;-74
2022/04/12 02:34:49;;;;;;;1.83;1.02;;;4.20;99.90;;;;;;4956159;29;20031;-74
2022/04/12 02:37:15;;;;;;;1.05;1.05;;;4.20;99.90;;;;;;4955433;29;20034;-74
2022/04/12 02:39:40;;;;;;;1.13;1.02;;;4.20;99.90;;;;;;4956017;29;20027;-74
2022/04/12 02:42:06;;;;;;;4.70;1.02;;;4.10;99.90;;;;;;4956814;29;20027;-74
2022/04/12 02:44:32;;;;;;;1.17;1.08;;;4.10;99.90;;;;;;4956398;29;20321;-74
2022/04/12 02:46:57;;;;;;;3.17;1.10;;;4.00;99.90;;;;;;4956466;29;20034;-75
2022/04/12 02:49:23;;;;;;;1.40;0.80;;;3.90;99.90;;;;;;4938667;29;20023;-74
2022/04/12 02:51:51;;;;;;;1.98;1.00;;;4.00;99.90;;;;;;4938895;29;20043;-74
2022/04/12 02:54:17;;;;;;;7.88;1.58;;;4.00;99.90;;;;;;4938585;29;20412;-74
2022/04/12 02:56:42;;;;;;;1.20;1.10;;;4.00;99.90;;;;;;4955726;29;20019;-74
2022/04/12 02:59:08;;;;;;;2.30;1.38;;;3.80;99.90;;;;;;4955833;29;20027;-74
2022/04/12 03:01:34;;;;;;;1.23;1.13;;;3.80;99.90;;;;;;4955813;29;20543;-74
2022/04/12 03:04:00;;;;;;;1.77;1.10;;;3.70;99.90;;;;;;4956352;29;20314;-74
2022/04/12 03:06:26;;;;;;;1.17;1.08;;;3.70;99.90;;;;;;4956097;29;20397;-75
2022/04/12 03:08:52;;;;;;;1.75;1.15;;;3.70;99.90;;;;;;4955321;29;20038;-74
2022/04/12 03:11:18;;;;;;;1.60;1.30;;;3.90;99.90;;;;;;4955679;29;20031;-74
2022/04/12 03:13:43;;;;;;;1.30;1.10;;;4.00;99.90;;;;;;4956747;29;20473;-74
2022/04/12 03:16:09;;;;;;;1.15;1.08;;;4.10;99.90;;;;;;4938684;29;20034;-74
2022/04/12 03:18:35;;;;;;;1.02;1.02;;;4.10;99.90;;;;;;4956103;29;20114;-75
2022/04/12 03:21:01;;;;;;;0.90;0.90;;;4.10;99.90;;;;;;4955334;29;20027;-74
2022/04/12 03:23:26;;;;;;;7.80;2.28;;;4.10;99.90;;;;;;4954768;29;20019;-74
2022/04/12 03:25:52;;;;;;;5.82;0.98;;;4.00;99.90;;;;;;4954287;29;20087;-74
2022/04/12 03:28:18;;;;;;;1.40;1.30;;;4.00;99.90;;;;;;4954738;29;20067;-74
2022/04/12 03:30:44;;;;;;;1.75;0.95;;;4.00;99.90;;;;;;4955534;29;20487;-74
2022/04/12 03:33:10;;;;;;;1.95;1.38;;;3.90;99.90;;;;;;4954856;29;20039;-74
2022/04/12 03:35:36;;;;;;;1.42;1.30;;;3.70;99.90;;;;;;4953487;28;20027;-74
2022/04/12 03:38:02;;;;;;;1.73;1.10;;;3.80;99.90;;;;;;4955017;29;20031;-74
2022/04/12 03:40:31;;;;;;;1.90;1.65;;;3.80;99.90;;;;;;4954704;29;20396;-75
2022/04/12 03:43:04;;;;;;;4.15;1.30;;;3.80;99.90;;;;;;4954419;29;20019;-74
2022/04/12 03:45:30;;;;;;;1.63;0.85;;;3.80;99.90;;;;;;4955399;29;20166;-76
2022/04/12 03:47:56;;;;;;;1.42;1.00;;;3.70;99.90;;;;;;4954865;29;20035;-74
2022/04/12 03:50:23;;;;;;;2.20;1.25;;;3.60;99.90;;;;;;4954991;29;20030;-74
2022/04/12 03:52:50;;;;;;;1.40;1.30;;;3.70;99.90;;;;;;4953923;29;20026;-74
2022/04/12 03:55:30;;;;;;;6.70;1.35;;;3.70;99.90;;;;;;4954624;29;20031;-74
2022/04/12 03:57:57;;;;;;;4.20;1.38;;;3.60;99.90;;;;;;4954080;29;20023;-74
2022/04/12 04:00:22;;;;;;;3.10;1.65;;;3.80;99.90;;;;;;4954451;29;20023;-74
2022/04/12 04:02:48;;;;;;;1.23;1.20;;;3.90;99.90;;;;;;4954101;29;20031;-74
2022/04/12 04:05:13;;;;;;;1.10;1.10;;;4.00;99.90;;;;;;4954319;29;20035;-74
2022/04/12 04:07:39;;;;;;;2.47;0.90;;;3.90;99.90;;;;;;4936385;29;20036;-74
2022/04/12 04:10:05;;;;;;;3.13;1.35;;;3.90;99.90;;;;;;4953036;29;20027;-74
2022/04/12 04:12:31;;;;;;;4.20;1.13;;;3.90;99.90;;;;;;4953544;29;20500;-75
2022/04/12 04:14:57;;;;;;;15.32;1.60;;;3.90;99.90;;;;;;4954273;29;20027;-75
2022/04/12 04:17:22;;;;;;;2.88;1.30;;;3.90;99.90;;;;;;4953539;29;20415;-74
2022/04/12 04:19:48;;;;;;;1.48;1.02;;;3.80;99.90;;;;;;4953895;29;20447;-74
2022/04/12 04:22:14;;;;;;;3.58;1.48;;;3.80;99.90;;;;;;4953468;29;20354;-74
2022/04/12 04:24:39;;;;;;;6.50;1.70;;;3.80;99.90;;;;;;4952821;29;20058;-74
2022/04/12 04:27:05;;;;;;;2.67;1.67;;;4.10;99.90;;;;;;4953603;29;20028;-75
2022/04/12 04:29:33;;;;;;;2.20;1.90;;;4.20;99.90;;;;;;4953522;29;20643;-74
2022/04/12 04:31:59;;;;;;;2.45;1.50;;;4.30;99.90;;;;;;4953525;29;20456;-74
2022/04/12 04:34:24;;;;;;;1.67;1.20;;;4.40;99.90;;;;;;4953506;29;20035;-75
2022/04/12 04:36:50;;;;;;;2.60;1.40;;;4.40;99.90;;;;;;4954006;29;20403;-75
2022/04/12 04:39:16;;;;;;;3.85;1.38;;;4.30;99.90;;;;;;4953932;29;20023;-75
2022/04/12 04:41:42;;;;;;;3.17;1.70;;;4.40;99.90;;;;;;4953371;29;20027;-75
2022/04/12 04:44:07;;;;;;;3.17;1.70;;;4.40;99.90;;;;;;4953121;29;20721;-74
2022/04/12 04:46:34;;;;;;;3.65;1.67;;;4.40;99.90;;;;;;4953480;28;20035;-77
2022/04/12 04:48:59;;;;;;;3.60;1.50;;;4.50;99.90;;;;;;4954196;29;20031;-74
2022/04/12 04:51:25;;;;;;;4.00;1.65;;;4.40;99.90;;;;;;4952793;29;20543;-75
2022/04/12 04:53:58;;;;;;;2.45;1.42;;;4.50;99.90;;;;;;4935193;29;20408;-73
2022/04/12 04:56:25;;;;;;;3.28;1.42;;;4.50;99.90;;;;;;4935770;29;20032;-74
2022/04/12 04:58:51;;;;;;;2.90;1.77;;;4.60;99.90;;;;;;4953041;29;20019;-74
2022/04/12 05:01:17;;;;;;;4.30;2.03;;;4.90;99.90;;;;;;4953296;29;20094;-74
2022/04/12 05:03:42;;;;;;;2.92;2.08;;;5.00;99.90;;;;;;4935918;29;20055;-75
2022/04/12 05:06:08;;;;;;;2.78;2.13;;;5.10;99.90;;;;;;4935733;29;20028;-75
2022/04/12 05:08:33;;;;;;;3.28;2.05;;;5.20;99.90;;;;;;4936060;29;20063;-75
2022/04/12 05:10:59;;;;;;;2.55;1.77;;;5.20;99.90;;;;;;4935475;29;20498;-74
2022/04/12 05:13:25;;;;;;;3.25;1.83;;;5.20;99.90;;;;;;4935297;29;20069;-75
2022/04/12 05:15:50;;;;;;;3.25;1.85;;;5.30;99.90;;;;;;4935332;29;20023;-74
2022/04/12 05:18:16;;;;;;;3.13;1.63;;;5.30;99.90;;;;;;4952321;29;20054;-74
2022/04/12 05:20:43;;;;;;;2.22;1.80;;;5.40;99.90;;;;;;4935390;29;20023;-74
2022/04/12 05:23:09;;;;;;;4.05;1.75;;;5.60;99.90;;;;;;4935091;29;20031;-75
2022/04/12 05:25:35;;;;;;;3.42;1.63;;;5.60;99.90;;;;;;4952191;29;20027;-74
2022/04/12 05:28:00;;;;;;;4.97;1.73;;;5.70;99.90;;;;;;4952294;29;20176;-74
2022/04/12 05:30:26;;;;;;;2.88;1.75;;;5.80;99.90;;;;;;4952389;29;20503;-74
2022/04/12 05:32:52;;;;;;;2.03;1.83;;;5.80;99.90;;;;;;4952433;29;20035;-75
2022/04/12 05:35:17;;;;;;;3.72;1.88;;;6.00;99.90;;;;;;4952587;29;20107;-75
2022/04/12 05:37:48;;;;;;;2.78;2.20;;;6.20;99.90;;;;;;4952388;29;20034;-74
2022/04/12 05:40:15;;;;;;;2.75;1.80;;;6.40;99.90;;;;;;4952161;29;20023;-75
2022/04/12 05:42:42;;;;;;;3.10;1.90;;;6.60;99.90;;;;;;4952586;29;20110;-74
2022/04/12 05:45:09;;;;;;;7.28;2.00;;;6.80;99.90;;;;;;4952085;29;20027;-74
2022/04/12 05:47:51;;;;;;;3.15;1.67;;;7.00;99.90;;;;;;4952155;29;20019;-74
2022/04/12 05:50:21;;;;;;;3.33;1.77;;;7.40;99.90;;;;;;4934903;29;20062;-74
2022/04/12 05:52:48;;;;;;;1.55;1.45;;;7.60;99.90;;;;;;4952567;29;20039;-75
2022/04/12 05:55:15;;;;;;;5.70;2.20;;;7.90;99.90;;;;;;4951659;29;20030;-75
2022/04/12 05:57:56;;;;;;;2.60;1.55;;;8.00;99.90;;;;;;4952602;28;20049;-76
2022/04/12 06:00:24;;;;;;;3.63;1.65;;;8.20;99.90;;;;;;4938761;29;20283;-75
2022/04/12 06:02:51;;;;;;;3.55;1.40;;;8.30;99.90;;;;;;4955791;29;20030;-75
2022/04/12 06:05:18;;;;;;;1.45;1.27;;;8.40;99.90;;;;;;4956490;29;20027;-74
2022/04/12 06:07:44;;;;;;;3.10;2.60;;;8.60;99.90;;;;;;4956004;29;20114;-75
2022/04/12 06:10:11;;;;;;;5.25;1.92;;;8.70;99.90;;;;;;4955510;29;20484;-75
2022/04/12 06:12:38;;;;;;;3.15;1.75;;;8.90;99.90;;;;;;4956119;29;20448;-75
2022/04/12 06:15:04;;;;;;;1.90;1.58;;;9.20;99.90;;;;;;4955896;29;20098;-75
2022/04/12 06:17:31;;;;;;;1.70;1.60;;;9.30;99.90;;;;;;4955783;29;20031;-74
2022/04/12 06:20:26;;;;;;;2.92;1.75;;;9.20;99.90;;;;;;4955618;29;20114;-74
2022/04/12 06:22:53;;;;;;;5.10;1.80;;;9.50;99.90;;;;;;4939147;29;20063;-75
2022/04/12 06:25:21;;;;;;;4.32;1.77;;;9.60;99.90;;;;;;4955074;29;20028;-75
2022/04/12 06:27:52;;;;;;;4.53;2.13;;;9.90;99.90;;;;;;4955588;29;20054;-75
2022/04/12 06:30:26;;;;;;;3.13;1.80;;;10.20;99.90;;;;;;4955963;28;20499;-75
2022/04/12 06:32:53;;;;;;;3.42;2.03;;;10.40;99.90;;;;;;4938425;29;20038;-75
2022/04/12 06:35:19;;;;;;;6.88;1.83;;;10.60;99.90;;;;;;4955388;29;20046;-75
2022/04/12 06:37:47;;;;;;;3.20;2.08;;;11.00;99.90;;;;;;4956594;29;20027;-75
2022/04/12 06:40:15;;;;;;;2.10;1.85;;;11.30;99.90;;;;;;4955546;29;20114;-75
2022/04/12 06:42:41;;;;;;;2.78;1.80;;;11.50;98.60;;;;;;4955406;29;20550;-76
2022/04/12 06:45:08;;;;;;;5.47;2.15;;;11.60;95.70;;;;;;4955373;29;20083;-75
2022/04/12 06:47:35;;;;;;;3.75;2.45;;;11.80;92.30;;;;;;4955396;29;20048;-75
2022/04/12 06:50:01;;;;;;;3.80;2.25;;;11.90;93.50;;;;;;4954867;29;20038;-75
2022/04/12 06:52:26;;;;;;;1.88;1.70;;;12.10;92.10;;;;;;4954793;29;20027;-75
2022/04/12 06:54:52;;;;;;;3.38;1.75;;;12.20;87.50;;;;;;4955181;29;20118;-75
2022/04/12 06:57:18;;;;;;;4.00;2.20;;;12.30;88.70;;;;;;4954715;29;20049;-75
2022/04/12 06:59:44;;;;;;;3.20;1.50;;;12.40;85.80;;;;;;4955500;29;20035;-75
2022/04/12 07:02:10;;;;;;;3.08;1.60;;;12.50;85.40;;;;;;4954776;29;20024;-75
2022/04/12 07:04:36;;;;;;;3.13;1.77;;;12.50;80.70;;;;;;4954677;29;20102;-75
2022/04/12 07:07:02;;;;;;;3.30;2.15;;;12.40;82.80;;;;;;4955267;29;20139;-75
2022/04/12 07:09:29;;;;;;;3.55;1.67;;;12.50;80.80;;;;;;4954439;28;20463;-74
2022/04/12 07:12:00;;;;;;;3.53;2.13;;;12.40;81.20;;;;;;4954613;29;20424;-75
2022/04/12 07:14:27;;;;;;;4.15;2.45;;;12.50;78.60;;;;;;4954904;29;20079;-75
2022/04/12 07:16:54;;;;;;;3.65;1.80;;;12.40;81.70;;;;;;4954974;29;20255;-75
2022/04/12 07:19:19;;;;;;;2.22;1.60;;;12.60;80.90;;;;;;4955432;29;20035;-74
2022/04/12 07:21:46;;;;;;;5.32;3.03;;;12.70;78.60;;;;;;4955118;29;20488;-75
2022/04/12 07:24:12;;;;;;;5.15;1.75;;;12.80;80.80;;;;;;4954299;29;20031;-75
2022/04/12 07:26:38;;;;;;;4.25;2.40;;;12.80;82.70;;;;;;4954877;29;20440;-74
2022/04/12 07:29:04;;;;;;;2.15;1.70;;;12.80;78.70;;;;;;4954540;28;20043;-74
2022/04/12 07:31:30;;;;;;;3.70;1.85;;;13.00;77.30;;;;;;4954509;29;20031;-75
2022/04/12 07:33:56;;;;;;;2.88;2.33;;;13.10;78.00;;;;;;4954870;29;20035;-74
2022/04/12 07:36:22;;;;;;;2.08;1.88;;;13.00;75.20;;;;;;4954130;29;20185;-75
2022/04/12 07:38:50;;;;;;;2.80;2.22;;;13.00;74.70;;;;;;4936310;29;20035;-75
2022/04/12 07:41:17;;;;;;;3.47;2.00;;;13.20;75.20;;;;;;4954687;29;20078;-74
2022/04/12 07:43:45;;;;;;;3.40;2.10;;;13.40;75.00;;;;;;4954850;29;20031;-74
2022/04/12 07:46:12;;;;;;;2.45;1.98;;;13.60;73.70;;;;;;4954839;29;20562;-74
2022/04/12 07:48:39;;;;;;;3.97;2.72;;;13.70;74.50;;;;;;4954140;29;20035;-75
2022/04/12 07:51:05;;;;;;;4.30;2.17;;;13.90;70.10;;;;;;4954106;29;20070;-75
2022/04/12 07:53:30;;;;;;;4.72;2.85;;;14.10;69.60;;;;;;4953853;29;20496;-75
2022/04/12 07:55:56;;;;;;;2.65;2.03;;;14.30;70.60;;;;;;4954113;29;20035;-75
2022/04/12 07:58:22;;;;;;;4.85;2.10;;;14.20;68.50;;;;;;4936945;29;20110;-75
2022/04/12 08:00:47;;;;;;;6.97;2.22;;;14.20;67.90;;;;;;4953373;29;20039;-76
2022/04/12 08:03:13;;;;;;;3.60;1.98;;;14.60;68.50;;;;;;4952866;29;20038;-76
2022/04/12 08:05:39;;;;;;;1.92;1.77;;;14.90;67.00;;;;;;4953807;29;20020;-75
2022/04/12 08:08:05;;;;;;;2.20;1.98;;;14.80;69.00;;;;;;4953661;29;20051;-75
2022/04/12 08:10:31;;;;;;;5.20;2.33;;;14.80;69.00;;;;;;4953698;29;20111;-74
2022/04/12 08:12:57;;;;;;;2.53;1.80;;;14.70;68.30;;;;;;4953017;29;20129;-77
2022/04/12 08:15:24;;;;;;;2.55;1.77;;;14.90;67.80;;;;;;4953152;29;20034;-75
2022/04/12 08:17:50;;;;;;;2.25;1.80;;;15.00;65.70;;;;;;4953918;29;20031;-75
2022/04/12 08:20:16;;;;;;;5.22;2.38;;;14.90;64.60;;;;;;4953693;28;20078;-75
2022/04/12 08:22:43;;;;;;;2.50;2.03;;;14.90;66.60;;;;;;4956440;29;20464;-75
2022/04/12 08:25:10;;;;;;;2.72;2.13;;;15.40;65.80;;;;;;4953657;29;20416;-75
2022/04/12 08:27:36;;;;;;;5.25;1.92;;;15.90;64.20;;;;;;4935355;29;20034;-75
2022/04/12 08:30:06;;;;;;;3.35;1.88;;;16.50;62.90;;;;;;4952504;28;20047;-75
2022/04/12 08:32:33;;;;;;;3.13;2.00;;;16.50;62.20;;;;;;4952330;29;20034;-75
2022/04/12 08:34:59;;;;;;;5.85;2.55;;;16.60;63.10;;;;;;4935204;29;20034;-75
2022/04/12 08:37:24;;;;;;;10.80;2.00;;;16.70;62.00;;;;;;4952777;29;20031;-75
2022/04/12 08:39:51;;;;;;;3.67;2.25;;;16.80;61.60;;;;;;4934976;29;20024;-75
2022/04/12 08:42:17;;;;;;;3.15;1.90;;;16.70;60.90;;;;;;4953311;29;20027;-74
2022/04/12 08:44:45;;;;;;;2.17;1.70;;;16.30;60.90;;;;;;4953871;29;20023;-74
2022/04/12 08:47:15;;;;;;;3.25;1.95;;;16.30;61.90;;;;;;4952863;29;20095;-75
2022/04/12 08:49:40;;;;;;;;;;;16.80;64.10;;;;;;4952518;29;20027;-75
2022/04/12 08:52:11;;;;;;;4.90;2.22;;;16.90;60.00;;;;;;4953381;29;19961;-74
2022/04/12 08:54:42;;;;;;;3.53;2.00;;;16.60;59.20;;;;;;4919878;29;20094;-75
2022/04/12 08:57:10;;;;;;;3.08;1.80;;;16.60;61.60;;;;;;4952359;29;20421;-78
2022/04/12 08:59:37;;;;;;;3.38;1.70;;;16.60;60.90;;;;;;4952120;29;20571;-75
2022/04/12 09:02:06;;;;;;;5.90;2.20;;;16.60;60.40;;;;;;4952079;29;20480;-75
2022/04/12 09:04:33;;;;;;;3.90;2.25;;;16.60;59.90;;;;;;4953039;29;20099;-74
2022/04/12 09:07:00;;;;;;;6.82;2.92;;;16.30;60.00;;;;;;4952721;29;20492;-75
2022/04/12 09:09:28;;;;;;;6.97;2.05;;;16.20;60.40;;;;;;4952521;29;20288;-75
2022/04/12 09:12:02;;;;;;;5.60;2.25;;;16.20;60.70;;;;;;4953878;29;20031;-75
2022/04/12 09:14:46;;;;;;;8.77;3.60;;;16.50;61.00;;;;;;4952872;29;20035;-75
2022/04/12 09:17:19;;;;;;;4.65;2.13;;;16.50;59.50;;;;;;4952903;29;20508;-74
2022/04/12 09:19:50;;;;;;;4.60;2.50;;;16.60;59.80;;;;;;4952867;29;20031;-74
2022/04/12 09:22:22;;;;;;;2.80;1.75;;;16.70;59.80;;;;;;4936104;29;20058;-75
2022/04/12 09:24:56;;;;;;;5.72;1.98;;;16.80;59.70;;;;;;4953039;29;20023;-74
2022/04/12 09:27:25;;;;;;;2.45;1.90;;;16.80;59.20;;;;;;4953396;29;20030;-75
2022/04/12 09:29:53;;;;;;;3.07;1.50;;;16.70;60.50;;;;;;4952573;28;20047;-75
2022/04/12 09:32:21;;;;;;;3.13;1.80;;;16.80;58.70;;;;;;4952106;28;20062;-75
2022/04/12 09:34:47;;;;;;;9.10;2.85;;;16.60;59.70;;;;;;4952830;29;20039;-74
2022/04/12 09:37:19;;;;;;;7.47;1.95;;;16.70;61.20;;;;;;4935166;29;20047;-75
2022/04/12 09:40:00;;;;;;;3.03;1.80;;;16.50;60.10;;;;;;4952011;29;20027;-74
2022/04/12 09:42:50;;;;;;;3.22;2.38;;;16.60;59.80;;;;;;4952395;29;20106;-75
2022/04/12 09:45:18;;;;;;;2.45;2.08;;;16.80;61.10;;;;;;4951923;29;20042;-75
2022/04/12 09:47:46;;;;;;;5.55;1.88;;;17.00;60.40;;;;;;4951413;29;20024;-77
2022/04/12 09:50:12;;;;;;;4.32;1.92;;;17.30;60.70;;;;;;4934002;29;20287;-79
2022/04/12 09:52:38;;;;;;;2.05;1.50;;;17.60;60.50;;;;;;4951210;29;20619;-75
2022/04/12 09:55:06;;;;;;;2.10;1.80;;;17.80;57.60;;;;;;4951406;29;20050;-75
2022/04/12 09:57:33;;;;;;;2.65;1.67;;;17.60;57.30;;;;;;4951610;29;20025;-75
2022/04/12 09:59:59;;;;;;;5.60;1.80;;;17.60;60.00;;;;;;4951415;29;20118;-75
2022/04/12 10:02:26;;;;;;;3.05;1.80;;;18.00;60.40;;;;;;4951241;29;20030;-75
2022/04/12 10:04:54;;;;;;;3.42;1.50;;;18.20;59.80;;;;;;4951165;29;20110;-75
2022/04/12 10:07:21;;;;;;;3.85;1.60;;;18.50;60.40;;;;;;4933760;29;20023;-75
2022/04/12 10:09:50;;;;;;;4.80;2.50;;;19.00;59.90;;;;;;4933603;29;20481;-76
2022/04/12 10:12:17;;;;;;;3.10;1.98;;;19.50;59.40;;;;;;4951476;29;20059;-75
2022/04/12 10:14:43;;;;;;;2.65;1.92;;;19.40;58.50;;;;;;4951292;29;20046;-75
2022/04/12 10:17:10;;;;;;;2.45;1.58;;;19.10;58.60;;;;;;4951122;29;20493;-75
2022/04/12 10:19:36;;;;;;;1.50;1.40;;;19.00;56.20;;;;;;4951350;29;20034;-75
2022/04/12 10:22:03;;;;;;;3.17;1.55;;;19.30;56.10;;;;;;4933968;29;20032;-75
2022/04/12 10:24:30;;;;;;;1.95;1.75;;;19.10;55.60;;;;;;4933259;29;20027;-75
2022/04/12 10:26:57;;;;;;;4.40;1.73;;;19.30;55.80;;;;;;4950911;29;20015;-75
2022/04/12 10:29:22;;;;;;;8.15;1.95;;;19.60;56.00;;;;;;4933638;29;20059;-75
2022/04/12 10:31:55;;;;;;;2.95;1.48;;;19.60;54.50;;;;;;4951121;29;20035;-75
2022/04/12 10:34:20;;;;;;;3.70;1.30;;;19.70;54.60;;;;;;4933772;29;20039;-76
2022/04/12 10:36:59;;;;;;;4.18;1.60;;;19.50;57.10;;;;;;4951081;29;20082;-75
2022/04/12 10:39:45;;;;;;;2.40;1.30;;;19.80;56.10;;;;;;4951213;29;20023;-74
2022/04/12 10:42:14;;;;;;;3.90;1.83;;;20.20;55.70;;;;;;4950822;29;20477;-75
2022/04/12 10:44:46;;;;;;;3.00;1.70;;;20.30;54.80;;;;;;4935451;29;20102;-75
2022/04/12 10:47:35;;;;;;;7.78;1.75;;;20.20;53.70;;;;;;4936978;29;20039;-75
2022/04/12 10:50:04;;;;;;;1.45;1.30;;;20.20;55.20;;;;;;4936998;29;20094;-75
2022/04/12 10:52:44;;;;;;;2.40;1.52;;;20.00;55.00;;;;;;4936896;29;20377;-75
2022/04/12 10:55:19;;;;;;;9.93;2.03;;;20.00;54.80;;;;;;4954228;29;20142;-75
2022/04/12 10:57:45;;;;;;;1.88;1.65;;;20.00;56.40;;;;;;4954355;29;20019;-75
2022/04/12 11:00:13;;;;;;;3.70;2.17;;;20.10;55.10;;;;;;4936968;29;20111;-76
2022/04/12 11:02:52;;;;;;;2.72;1.40;;;19.90;55.40;;;;;;4936925;29;20548;-75
2022/04/12 11:05:42;;;;;;;1.88;1.52;;;20.00;55.30;;;;;;4936838;29;20381;-75
2022/04/12 11:08:13;;;;;;;2.30;1.20;;;20.50;54.80;;;;;;4954116;29;20039;-75
2022/04/12 11:10:49;;;;;;;2.58;1.40;;;21.10;53.80;;;;;;4936663;29;20090;-75
2022/04/12 11:13:20;;;;;;;2.10;1.60;;;21.00;52.50;;;;;;4954280;29;20375;-75
2022/04/12 11:15:54;;;;;;;2.20;1.25;;;21.70;52.20;;;;;;4936800;29;20114;-75
2022/04/12 11:18:20;;;;;;;2.85;1.10;;;21.90;52.00;;;;;;4936401;29;20027;-76
2022/04/12 11:21:01;;;;;;;1.25;1.02;;;22.20;51.10;;;;;;4936519;29;20436;-76
2022/04/12 11:23:54;;;;;;;1.42;1.33;;;22.00;49.90;;;;;;4953790;29;20140;-75
2022/04/12 11:26:38;;;;;;;2.47;1.25;;;21.60;52.00;;;;;;4953963;29;20516;-75
2022/04/12 11:29:15;;;;;;;1.85;1.30;;;21.80;52.60;;;;;;4953575;28;20059;-76
2022/04/12 11:31:54;;;;;;;4.93;1.00;;;22.30;51.40;;;;;;4954033;29;20510;-75
2022/04/12 11:34:21;;;;;;;1.70;1.20;;;22.60;50.90;;;;;;4953749;29;20064;-76
2022/04/12 11:36:51;;;;;;;3.45;0.98;;;22.70;50.00;;;;;;4953529;29;20183;-75
2022/04/12 11:39:27;;;;;;;2.35;1.15;;;23.00;52.00;;;;;;4953253;29;20023;-76
2022/04/12 11:42:08;;;;;;;4.80;2.70;;;23.20;50.20;;;;;;4953641;29;20042;-75
2022/04/12 11:44:34;;;;;;;3.38;1.17;;;23.20;49.50;;;;;;4953721;29;20396;-75
2022/04/12 11:47:02;;;;;;;1.88;1.15;;;23.30;48.70;;;;;;4953539;29;20027;-75
2022/04/12 11:49:30;;;;;;;2.87;1.30;;;22.90;48.80;;;;;;4953665;29;20082;-75
2022/04/12 11:52:02;;;;;;;2.63;1.10;;;23.00;50.80;;;;;;4954041;29;20090;-75
2022/04/12 11:54:32;;;;;;;5.10;1.17;;;23.30;50.20;;;;;;4953122;29;20094;-75
2022/04/12 11:57:03;;;;;;;1.38;1.02;;;23.60;48.20;;;;;;4952524;28;20082;-75
2022/04/12 11:59:30;;;;;;;4.68;2.35;;;23.40;48.30;;;;;;4953357;29;20034;-75
2022/04/12 12:02:01;;;;;;;4.50;2.33;;;23.60;48.20;;;;;;4953517;29;20023;-76
2022/04/12 12:04:33;;;;;;;2.00;1.65;;;23.80;47.00;;;;;;4953507;29;20544;-75
2022/04/12 12:07:07;;;;;;;2.20;1.52;;;24.20;47.20;;;;;;4953303;29;20020;-76
2022/04/12 12:09:34;;;;;;;2.60;1.20;;;24.80;47.40;;;;;;4952843;29;20085;-78
2022/04/12 12:12:04;;;;;;;2.17;1.33;;;24.60;46.50;;;;;;4953276;29;20041;-77
2022/04/12 12:14:31;;;;;;;1.33;1.15;;;24.30;47.60;;;;;;4952962;29;20492;-75
2022/04/12 12:17:03;;;;;;;2.55;1.08;;;24.50;46.70;;;;;;4953039;29;20475;-75
2022/04/12 12:19:29;;;;;;;3.63;1.38;;;24.30;46.10;;;;;;4935685;29;20058;-76
2022/04/12 12:21:55;;;;;;;1.63;1.15;;;24.70;47.30;;;;;;4935272;29;20023;-75
2022/04/12 12:24:21;;;;;;;2.15;1.50;;;24.80;47.20;;;;;;4952772;29;20544;-77
2022/04/12 12:26:53;;;;;;;2.88;1.30;;;25.10;47.50;;;;;;4935668;29;20118;-76
2022/04/12 12:29:22;;;;;;;3.67;1.70;;;26.10;46.60;;;;;;4952777;28;20035;-75
2022/04/12 12:31:47;;;;;;;1.05;0.90;;;25.80;46.10;;;;;;4952745;29;20381;-75
2022/04/12 12:34:33;;;;;;;1.83;0.82;;;26.00;46.40;;;;;;4952494;29;20045;-75
2022/04/12 12:37:06;;;;;;;2.50;1.50;;;25.90;46.50;;;;;;4952829;29;20211;-75
2022/04/12 12:39:38;;;;;;;2.17;1.00;;;26.10;44.70;;;;;;4952628;29;20055;-75
2022/04/12 12:42:03;;;;;;;2.35;1.33;;;26.10;45.30;;;;;;4952558;29;20023;-75
2022/04/12 12:44:36;;;;;;;3.30;1.10;;;26.50;46.20;;;;;;4952971;29;20031;-75
2022/04/12 12:47:04;;;;;;;7.55;1.15;;;25.60;46.10;;;;;;4952190;29;20046;-75
2022/04/12 12:49:40;;;;;;;4.07;1.00;;;25.90;45.20;;;;;;4952167;29;20031;-75
2022/04/12 12:52:17;;;;;;;0.95;0.93;;;25.60;47.10;;;;;;4934855;29;20027;-75
2022/04/12 12:54:54;;;;;;;1.92;1.13;;;26.20;47.40;;;;;;4951739;29;20662;-75
2022/04/12 12:57:36;;;;;;;1.10;1.00;;;26.10;46.90;;;;;;4951801;29;20392;-75
2022/04/12 13:00:07;;;;;;;2.65;1.27;;;26.10;45.30;;;;;;4951969;29;20030;-75